Time;durP1;ratioP1;P1;durP2;ratioP2;P2;SDS_P1;SDS_P2;PMS_P1;PMS_P2;Temp;Humidity;BMP_temperature;BMP_pressure;BME280_temperature;BME280_humidity;BME280_pressure;Samples;Min_cycle;Max_cycle;Signal;HPM_P1;HPM_P2
2022/01/30 00:00:39;;;;;;;;;;;5.80;99.90;;;;;;4920734;29;19947;-92
2022/01/30 00:03:05;;;;;;;;;;;5.40;99.90;;;;;;4943018;29;19966;-86
2022/01/30 00:05:32;;;;;;;;;;;5.50;99.90;;;;;;4931743;29;19985;-91
2022/01/30 00:07:58;;;;;;;;;;;5.50;99.90;;;;;;4931727;29;20341;-83
2022/01/30 00:10:24;;;;;;;;;;;5.50;99.90;;;;;;4927942;29;19947;-85
2022/01/30 00:15:16;;;;;;;;;;;5.30;99.90;;;;;;4928395;29;20353;-88
2022/01/30 00:17:49;;;;;;;;;;;5.30;99.90;;;;;;4929498;29;19985;-87
2022/01/30 00:20:20;;;;;;;;;;;5.20;99.90;;;;;;4924241;29;20446;-83
2022/01/30 00:23:08;;;;;;;;;;;5.50;99.90;;;;;;4917190;29;20031;-84
2022/01/30 00:25:44;;;;;;;;;;;5.10;99.90;;;;;;4927833;29;20027;-84
2022/01/30 00:28:12;;;;;;;;;;;5.10;99.90;;;;;;4924068;29;19997;-83
2022/01/30 00:30:40;;;;;;;;;;;5.10;99.90;;;;;;4928416;29;20541;-81
2022/01/30 00:33:07;;;;;;;;;;;5.10;99.90;;;;;;4928865;29;20007;-84
2022/01/30 00:35:33;;;;;;;;;;;5.00;99.90;;;;;;4930706;29;19945;-84
2022/01/30 00:38:03;;;;;;;;;;;5.00;99.90;;;;;;4926506;29;20299;-83
2022/01/30 00:40:28;;;;;;;;;;;5.00;99.90;;;;;;4923157;29;19959;-85
2022/01/30 00:42:54;;;;;;;;;;;5.00;99.90;;;;;;4917706;29;19964;-85
2022/01/30 00:45:19;;;;;;;;;;;5.00;99.90;;;;;;4913441;29;20289;-88
2022/01/30 00:47:45;;;;;;;;;;;5.00;99.90;;;;;;4918384;29;19940;-86
2022/01/30 00:50:10;;;;;;;;;;;4.90;99.90;;;;;;4917198;29;19949;-87
2022/01/30 00:52:36;;;;;;;;;;;4.80;99.90;;;;;;4944489;29;20007;-88
2022/01/30 00:55:03;;;;;;;;;;;4.90;99.90;;;;;;4923465;29;20046;-87
2022/01/30 00:57:29;;;;;;;;;;;4.80;99.90;;;;;;4934300;29;20019;-84
2022/01/30 00:59:54;;;;;;;;;;;4.70;99.90;;;;;;4933953;29;19950;-84
2022/01/30 01:02:20;;;;;;;;;;;4.70;99.90;;;;;;4940354;29;19966;-84
2022/01/30 01:04:45;;;;;;;;;;;4.60;99.90;;;;;;4918275;29;19963;-81
2022/01/30 01:07:18;;;;;;;;;;;4.60;99.90;;;;;;4919333;29;20434;-84
2022/01/30 01:09:51;;;;;;;;;;;4.60;99.90;;;;;;4924552;29;19947;-85
2022/01/30 01:23:30;;;;;;;;;;;4.70;99.90;;;;;;4934650;29;19966;-84
2022/01/30 01:25:56;;;;;;;;;;;5.30;99.90;;;;;;4916145;29;19952;-85
2022/01/30 01:28:22;;;;;;;;;;;4.80;99.90;;;;;;4920513;29;19951;-84
2022/01/30 01:30:48;;;;;;;;;;;4.90;99.90;;;;;;4928516;29;20364;-85
2022/01/30 01:33:14;;;;;;;;;;;4.90;99.90;;;;;;4932535;29;20406;-85
2022/01/30 01:35:40;;;;;;;;;;;5.00;99.90;;;;;;4935744;29;20373;-84
2022/01/30 01:38:10;;;;;;;;;;;5.10;99.90;;;;;;4919510;29;19954;-82
2022/01/30 01:40:36;;;;;;;;;;;5.10;99.90;;;;;;4949266;29;19955;-85
2022/01/30 01:43:02;;;;;;;;;;;5.10;99.90;;;;;;4927439;29;19973;-87
2022/01/30 01:45:34;;;;;;;;;;;5.10;99.90;;;;;;4929950;29;19945;-85
2022/01/30 01:48:03;;;;;;;;;;;5.00;99.90;;;;;;4932762;29;20427;-85
2022/01/30 01:50:43;;;;;;;;;;;5.00;99.90;;;;;;4932293;29;20002;-88
2022/01/30 01:53:10;;;;;;;;;;;5.00;99.90;;;;;;4919884;29;19948;-85
2022/01/30 01:55:39;;;;;;;;;;;5.00;99.90;;;;;;4931963;29;19945;-86
2022/01/30 01:58:04;;;;;;;;;;;4.90;99.90;;;;;;4922536;29;19948;-86
2022/01/30 02:00:30;;;;;;;;;;;4.90;99.90;;;;;;4926465;29;19952;-85
2022/01/30 02:02:56;;;;;;;;;;;4.90;99.90;;;;;;4935889;29;19984;-86
2022/01/30 02:05:30;;;;;;;;;;;4.90;99.90;;;;;;4929394;29;19989;-84
2022/01/30 02:08:33;;;;;;;;;;;4.80;99.90;;;;;;4914211;29;19955;-87
2022/01/30 02:11:01;;;;;;;;;;;4.80;99.90;;;;;;4927643;29;20520;-88
2022/01/30 02:13:49;;;;;;;;;;;4.80;99.90;;;;;;4928938;29;20039;-87
2022/01/30 02:27:05;;;;;;;;;;;5.10;99.90;;;;;;4931019;29;19948;-83
2022/01/30 02:29:30;;;;;;;;;;;5.10;99.90;;;;;;4932873;29;19953;-86
2022/01/30 02:31:58;;;;;;;;;;;5.10;99.90;;;;;;4929684;29;20499;-86
2022/01/30 02:34:24;;;;;;;;;;;5.10;99.90;;;;;;4929036;29;19947;-85
2022/01/30 02:36:51;;;;;;;;;;;5.10;99.90;;;;;;4935590;29;20051;-84
2022/01/30 02:39:18;;;;;;;;;;;5.10;99.90;;;;;;4929566;29;19948;-86
2022/01/30 02:41:44;;;;;;;;;;;5.10;99.90;;;;;;4953648;28;20097;-85
2022/01/30 02:44:18;;;;;;;;;;;5.10;99.90;;;;;;4944071;29;20031;-84
2022/01/30 02:46:50;;;;;;;;;;;5.10;99.90;;;;;;4918163;29;19965;-85
2022/01/30 02:51:51;;;;;;;;;;;5.10;99.90;;;;;;4921278;29;19947;-84
2022/01/30 02:54:17;;;;;;;;;;;5.10;99.90;;;;;;4928399;29;20310;-84
2022/01/30 02:56:43;;;;;;;;;;;5.10;99.90;;;;;;4926015;29;19959;-85
2022/01/30 02:59:08;;;;;;;;;;;5.10;99.90;;;;;;4932923;29;19961;-87
2022/01/30 03:01:34;;;;;;;;;;;5.10;99.90;;;;;;4924175;29;19944;-82
2022/01/30 03:04:00;;;;;;;;;;;5.10;99.90;;;;;;4948505;28;20034;-84
2022/01/30 03:06:25;;;;;;;;;;;5.10;99.90;;;;;;4933047;29;19954;-86
2022/01/30 03:08:51;;;;;;;;;;;5.20;99.90;;;;;;4926541;29;19952;-85
2022/01/30 03:11:18;;;;;;;;;;;5.20;99.90;;;;;;4915442;29;20068;-86
2022/01/30 03:13:43;;;;;;;;;;;5.20;99.90;;;;;;4930122;29;20045;-88
2022/01/30 03:16:09;;;;;;;;;;;5.30;99.90;;;;;;4932555;29;19957;-86
2022/01/30 03:18:35;;;;;;;;;;;5.30;99.90;;;;;;4932814;29;19972;-84
2022/01/30 03:21:01;;;;;;;;;;;5.30;99.90;;;;;;4918082;29;19951;-87
2022/01/30 03:23:27;;;;;;;;;;;5.30;99.90;;;;;;4920999;29;19961;-87
2022/01/30 03:25:57;;;;;;;;;;;5.30;99.90;;;;;;4919492;29;20021;-85
2022/01/30 03:28:23;;;;;;;;;;;5.40;99.90;;;;;;4929392;29;19955;-87
2022/01/30 03:30:53;;;;;;;;;;;5.80;99.90;;;;;;4917473;29;20627;-83
2022/01/30 03:33:19;;;;;;;;;;;5.40;99.90;;;;;;4923176;29;19960;-87
2022/01/30 03:35:45;;;;;;;;;;;5.40;99.90;;;;;;4932541;29;20329;-84
2022/01/30 03:38:10;;;;;;;;;;;5.40;99.90;;;;;;4941098;29;19950;-90
2022/01/30 03:40:36;;;;;;;;;;;5.40;99.90;;;;;;4915989;29;19964;-87
2022/01/30 03:43:02;;;;;;;;;;;5.40;99.90;;;;;;4926413;29;19970;-87
2022/01/30 03:45:28;;;;;;;;;;;5.50;99.90;;;;;;4921856;29;20463;-83
2022/01/30 03:47:56;;;;;;;;;;;5.40;99.90;;;;;;4926471;29;19952;-85
2022/01/30 03:50:21;;;;;;;;;;;5.40;99.90;;;;;;4932186;29;20037;-84
2022/01/30 03:52:47;;;;;;;;;;;5.40;99.90;;;;;;4927418;29;19989;-85
2022/01/30 03:55:13;;;;;;;;;;;5.40;99.90;;;;;;4922643;29;19977;-89
2022/01/30 03:57:38;;;;;;;;;;;5.40;99.90;;;;;;4927610;29;19953;-82
2022/01/30 04:00:05;;;;;;;;;;;5.40;99.90;;;;;;4933602;29;20584;-86
2022/01/30 04:02:30;;;;;;;;;;;5.40;99.90;;;;;;4943480;28;19960;-86
2022/01/30 04:04:56;;;;;;;;;;;5.40;99.90;;;;;;4929470;29;19953;-85
2022/01/30 04:07:21;;;;;;;;;;;5.40;99.90;;;;;;4920705;29;19958;-84
2022/01/30 04:09:47;;;;;;;;;;;5.40;99.90;;;;;;4921207;29;19958;-87
2022/01/30 04:12:13;;;;;;;;;;;5.40;99.90;;;;;;4921323;29;19948;-85
2022/01/30 04:14:39;;;;;;;;;;;5.40;99.90;;;;;;4932187;29;19951;-85
2022/01/30 04:17:06;;;;;;;;;;;5.40;99.90;;;;;;4918512;29;20451;-84
2022/01/30 04:19:31;;;;;;;;;;;5.40;99.90;;;;;;4926192;29;20038;-88
2022/01/30 04:21:57;;;;;;;;;;;5.40;99.90;;;;;;4931332;29;19989;-84
2022/01/30 04:24:22;;;;;;;;;;;5.40;99.90;;;;;;4919715;29;19955;-85
2022/01/30 04:26:48;;;;;;;;;;;5.40;99.90;;;;;;4921706;29;20419;-85
2022/01/30 04:29:14;;;;;;;;;;;5.40;99.90;;;;;;4941051;29;19952;-86
2022/01/30 04:31:39;;;;;;;;;;;5.40;99.90;;;;;;4944279;29;20401;-90
2022/01/30 04:34:05;;;;;;;;;;;5.40;99.90;;;;;;4935675;29;20092;-88
2022/01/30 04:36:40;;;;;;;;;;;5.40;99.90;;;;;;4938546;29;19977;-83
2022/01/30 04:39:34;;;;;;;;;;;5.40;99.90;;;;;;4918714;29;20253;-87
2022/01/30 04:58:11;;;;;;;;;;;5.60;99.90;;;;;;4921741;29;20397;-88
2022/01/30 05:03:34;;;;;;;;;;;5.60;99.90;;;;;;4927715;29;19965;-83
2022/01/30 05:06:13;;;;;;;;;;;5.60;99.90;;;;;;4913466;29;19949;-88
2022/01/30 05:08:38;;;;;;;;;;;5.60;99.90;;;;;;4913051;29;20343;-86
2022/01/30 05:11:07;;;;;;;;;;;5.60;99.90;;;;;;4924991;29;20003;-87
2022/01/30 05:13:35;;;;;;;;;;;5.60;99.90;;;;;;4919064;29;19949;-86
2022/01/30 05:16:00;;;;;;;;;;;5.60;99.90;;;;;;4924022;29;19951;-87
2022/01/30 05:18:27;;;;;;;;;;;5.60;99.90;;;;;;4914809;29;19987;-88
2022/01/30 05:20:53;;;;;;;;;;;5.60;99.90;;;;;;4918519;29;19980;-90
2022/01/30 05:23:22;;;;;;;;;;;5.60;99.90;;;;;;4915953;29;19989;-89
2022/01/30 05:25:49;;;;;;;;;;;5.60;99.90;;;;;;4913936;29;19945;-86
2022/01/30 05:28:15;;;;;;;;;;;5.70;99.90;;;;;;4921283;29;20466;-86
2022/01/30 05:30:40;;;;;;;;;;;6.00;99.90;;;;;;4923709;29;20002;-87
2022/01/30 05:33:06;;;;;;;;;;;5.60;99.90;;;;;;4918909;29;19958;-87
2022/01/30 05:35:32;;;;;;;;;;;5.70;99.90;;;;;;4918248;29;19950;-88
2022/01/30 05:37:57;;;;;;;;;;;5.70;99.90;;;;;;4932625;29;19995;-86
2022/01/30 05:40:23;;;;;;;;;;;5.70;99.90;;;;;;4927278;29;19995;-88
2022/01/30 05:42:49;;;;;;;;;;;5.70;99.90;;;;;;4922882;29;19974;-87
2022/01/30 05:47:57;;;;;;;;;;;5.50;99.90;;;;;;4942884;29;20293;-83
2022/01/30 05:50:23;;;;;;;;;;;5.40;99.90;;;;;;4934136;29;20525;-87
2022/01/30 05:52:48;;;;;;;;;;;5.30;99.90;;;;;;4925400;29;19958;-85
2022/01/30 05:55:14;;;;;;;;;;;5.10;99.90;;;;;;4935537;29;20023;-84
2022/01/30 05:57:39;;;;;;;;;;;5.00;99.90;;;;;;4933243;29;19958;-87
2022/01/30 06:00:06;;;;;;;;;;;5.00;99.90;;;;;;4934383;29;19954;-83
2022/01/30 06:02:32;;;;;;;;;;;4.90;99.90;;;;;;4933942;29;20061;-85
2022/01/30 06:04:57;;;;;;;;;;;4.90;99.90;;;;;;4934082;29;20051;-83
2022/01/30 06:07:28;;;;;;;;;;;4.80;99.90;;;;;;4938843;29;20376;-83
2022/01/30 06:09:53;;;;;;;;;;;4.80;99.90;;;;;;4954549;29;20475;-87
2022/01/30 06:12:19;;;;;;;;;;;4.70;99.90;;;;;;4942388;29;19956;-85
2022/01/30 06:14:46;;;;;;;;;;;4.70;99.90;;;;;;4931904;29;20008;-87
2022/01/30 06:17:12;;;;;;;;;;;4.70;99.90;;;;;;4947369;29;19953;-83
2022/01/30 06:19:38;;;;;;;;;;;4.70;99.90;;;;;;4953497;29;19973;-86
2022/01/30 06:22:03;;;;;;;;;;;4.70;99.90;;;;;;4923154;29;19968;-85
2022/01/30 06:24:29;;;;;;;;;;;4.80;99.90;;;;;;4927414;29;20442;-88
2022/01/30 06:26:54;;;;;;;;;;;4.80;99.90;;;;;;4932080;29;19952;-89
2022/01/30 06:29:20;;;;;;;;;;;4.90;99.90;;;;;;4921612;29;19945;-86
2022/01/30 06:31:46;;;;;;;;;;;5.00;99.90;;;;;;4926951;29;20371;-86
2022/01/30 06:34:11;;;;;;;;;;;5.00;99.90;;;;;;4922280;29;20074;-86
2022/01/30 06:36:36;;;;;;;;;;;5.00;99.90;;;;;;4934564;29;20308;-86
2022/01/30 06:39:02;;;;;;;;;;;5.10;99.90;;;;;;4931246;29;20069;-86
2022/01/30 06:41:28;;;;;;;;;;;5.10;99.90;;;;;;4935183;29;19950;-86
2022/01/30 06:43:53;;;;;;;;;;;5.10;99.90;;;;;;4933971;29;19965;-88
2022/01/30 06:46:19;;;;;;;;;;;5.10;99.90;;;;;;4934641;29;20300;-89
2022/01/30 06:48:44;;;;;;;;;;;5.10;99.90;;;;;;4944030;29;19985;-89
2022/01/30 06:51:10;;;;;;;;;;;5.10;99.90;;;;;;4919046;29;19947;-85
2022/01/30 06:53:35;;;;;;;;;;;5.20;99.90;;;;;;4937714;29;19954;-93
2022/01/30 06:56:01;;;;;;;;;;;5.20;99.90;;;;;;4926150;29;19944;-89
2022/01/30 06:58:26;;;;;;;;;;;5.20;99.90;;;;;;4927857;29;20429;-87
2022/01/30 07:00:52;;;;;;;;;;;5.20;99.90;;;;;;4931200;29;20415;-84
2022/01/30 07:03:18;;;;;;;;;;;5.20;99.90;;;;;;4927747;29;20017;-83
2022/01/30 07:05:43;;;;;;;;;;;5.20;99.90;;;;;;4921813;29;20058;-86
2022/01/30 07:08:08;;;;;;;;;;;5.20;99.90;;;;;;4919797;29;19961;-86
2022/01/30 07:10:34;;;;;;;;;;;5.20;99.90;;;;;;4926953;29;20043;-88
2022/01/30 07:13:00;;;;;;;;;;;5.20;99.90;;;;;;4926375;29;20040;-88
2022/01/30 07:15:25;;;;;;;;;;;5.20;99.90;;;;;;4929197;29;19960;-88
2022/01/30 07:17:51;;;;;;;;;;;5.20;99.90;;;;;;4929389;29;19980;-86
2022/01/30 07:20:16;;;;;;;;;;;5.20;99.90;;;;;;4927020;29;19996;-85
2022/01/30 07:22:42;;;;;;;;;;;5.20;99.90;;;;;;4930782;29;20852;-86
2022/01/30 07:25:07;;;;;;;;;;;5.20;99.90;;;;;;4924593;29;19951;-86
2022/01/30 07:27:37;;;;;;;;;;;5.20;99.90;;;;;;4929299;29;19950;-85
2022/01/30 07:30:04;;;;;;;;;;;5.20;99.90;;;;;;4919679;29;20310;-85
2022/01/30 07:32:29;;;;;;;;;;;5.20;99.90;;;;;;4930060;29;19967;-83
2022/01/30 07:34:55;;;;;;;;;;;5.20;99.90;;;;;;4917338;29;19960;-86
2022/01/30 07:37:21;;;;;;;;;;;5.20;99.90;;;;;;4917819;29;20461;-90
2022/01/30 07:39:46;;;;;;;;;;;5.20;99.90;;;;;;4927034;29;20446;-86
2022/01/30 07:42:12;;;;;;;;;;;5.20;99.90;;;;;;4947064;28;20049;-85
2022/01/30 07:44:38;;;;;;;;;;;5.20;99.90;;;;;;4918468;29;20049;-84
2022/01/30 07:47:04;;;;;;;;;;;5.30;99.90;;;;;;4934826;29;20582;-87
2022/01/30 07:49:30;;;;;;;;;;;5.30;99.90;;;;;;4918189;29;19960;-86
2022/01/30 07:51:55;;;;;;;;;;;5.30;99.90;;;;;;4919717;29;19957;-87
2022/01/30 07:54:21;;;;;;;;;;;5.30;99.90;;;;;;4927116;29;19957;-86
2022/01/30 07:56:47;;;;;;;;;;;5.20;99.90;;;;;;4931985;29;19950;-87
2022/01/30 07:59:13;;;;;;;;;;;5.30;99.90;;;;;;4931243;29;19956;-88
2022/01/30 08:01:38;;;;;;;;;;;5.20;99.90;;;;;;4927061;29;20421;-85
2022/01/30 08:04:07;;;;;;;;;;;5.90;99.90;;;;;;4923810;29;20045;-87
2022/01/30 08:06:33;;;;;;;;;;;5.30;99.90;;;;;;4930565;29;19941;-91
2022/01/30 08:08:58;;;;;;;;;;;5.20;99.90;;;;;;4918671;29;20061;-88
2022/01/30 08:11:24;;;;;;;;;;;5.30;99.90;;;;;;4927353;29;20066;-85
2022/01/30 08:13:49;;;;;;;;;;;5.30;99.90;;;;;;4926152;29;20012;-86
2022/01/30 08:16:15;;;;;;;;;;;5.30;99.90;;;;;;4927910;29;19959;-90
2022/01/30 08:18:41;;;;;;;;;;;5.40;99.90;;;;;;4926763;29;20069;-90
2022/01/30 08:21:06;;;;;;;;;;;5.40;99.90;;;;;;4929843;29;19951;-90
2022/01/30 08:23:33;;;;;;;;;;;6.10;99.90;;;;;;4928536;29;20436;-90
2022/01/30 08:25:59;;;;;;;;;;;5.40;99.90;;;;;;4935591;29;19951;-88
2022/01/30 08:28:25;;;;;;;;;;;5.40;99.90;;;;;;4930056;29;19960;-87
2022/01/30 08:30:51;;;;;;;;;;;5.40;99.90;;;;;;4929629;29;19983;-91
2022/01/30 08:33:17;;;;;;;;;;;5.40;99.90;;;;;;4929971;29;20367;-90
2022/01/30 08:35:43;;;;;;;;;;;5.40;99.90;;;;;;4935134;29;19945;-92
2022/01/30 08:38:10;;;;;;;;;;;5.40;99.90;;;;;;4929242;29;19957;-91
2022/01/30 08:40:36;;;;;;;;;;;5.40;99.90;;;;;;4927643;29;19964;-94
2022/01/30 08:43:01;;;;;;;;;;;5.50;99.90;;;;;;4924901;29;19964;-94
2022/01/30 08:45:30;;;;;;;;;;;6.00;99.90;;;;;;4935940;29;19983;-95
2022/01/30 08:47:55;;;;;;;;;;;5.60;99.90;;;;;;4935569;29;20628;-95
2022/01/30 08:50:21;;;;;;;;;;;5.60;99.90;;;;;;4927947;29;20558;-88
2022/01/30 08:52:47;;;;;;;;;;;5.60;99.90;;;;;;4932543;29;19953;-84
2022/01/30 08:55:13;;;;;;;;;;;5.60;99.90;;;;;;4926781;29;20361;-87
2022/01/30 08:57:39;;;;;;;;;;;5.60;99.90;;;;;;4920805;29;19980;-90
2022/01/30 09:00:06;;;;;;;;;;;5.60;99.90;;;;;;4935089;29;19952;-89
2022/01/30 09:02:32;;;;;;;;;;;5.60;99.90;;;;;;4922944;29;20047;-86
2022/01/30 09:04:57;;;;;;;;;;;5.60;99.90;;;;;;4927179;29;19981;-89
2022/01/30 09:07:23;;;;;;;;;;;5.60;99.90;;;;;;4936643;29;20408;-86
2022/01/30 09:09:48;;;;;;;;;;;5.60;99.90;;;;;;4932358;29;19964;-88
2022/01/30 09:12:14;;;;;;;;;;;5.70;99.90;;;;;;4925173;29;19948;-86
2022/01/30 09:14:41;;;;;;;;;;;5.80;99.90;;;;;;4922228;29;19944;-95
2022/01/30 09:17:12;;;;;;;;;;;5.80;99.90;;;;;;4935033;29;20015;-88
2022/01/30 09:19:39;;;;;;;;;;;5.90;99.90;;;;;;4929671;29;20061;-85
2022/01/30 09:22:04;;;;;;;;;;;5.90;99.90;;;;;;4933654;29;20301;-91
2022/01/30 09:24:30;;;;;;;;;;;6.50;99.90;;;;;;4937590;29;19965;-88
2022/01/30 09:26:55;;;;;;;;;;;5.80;99.90;;;;;;4935189;29;19990;-89
2022/01/30 09:29:22;;;;;;;;;;;5.80;99.90;;;;;;4949299;28;19955;-87
2022/01/30 09:31:48;;;;;;;;;;;5.80;99.90;;;;;;4932897;29;20009;-87
2022/01/30 09:34:14;;;;;;;;;;;5.80;99.90;;;;;;4932210;29;19982;-87
2022/01/30 09:36:39;;;;;;;;;;;5.90;99.90;;;;;;4929384;29;19961;-86
2022/01/30 09:39:05;;;;;;;;;;;6.00;99.90;;;;;;4932535;29;20294;-91
2022/01/30 09:41:32;;;;;;;;;;;6.10;99.90;;;;;;4927940;29;19961;-87
2022/01/30 09:44:00;;;;;;;;;;;6.20;99.90;;;;;;4928494;29;20000;-86
2022/01/30 09:46:26;;;;;;;;;;;6.30;99.90;;;;;;4929252;29;19967;-84
2022/01/30 09:48:52;;;;;;;;;;;6.30;99.90;;;;;;4927557;29;19949;-84
2022/01/30 09:51:18;;;;;;;;;;;6.30;99.90;;;;;;4926316;29;20737;-84
2022/01/30 09:53:43;;;;;;;;;;;6.30;99.90;;;;;;4925428;29;20373;-85
2022/01/30 09:56:09;;;;;;;;;;;6.20;99.90;;;;;;4931247;29;19957;-88
2022/01/30 09:58:34;;;;;;;;;;;6.50;99.90;;;;;;4927881;29;19948;-85
2022/01/30 10:01:01;;;;;;;;;;;6.70;99.90;;;;;;4928815;29;20025;-87
2022/01/30 10:03:29;;;;;;;;;;;6.70;99.90;;;;;;4926668;29;19965;-87
2022/01/30 10:06:09;;;;;;;;;;;6.70;99.90;;;;;;4929713;29;20016;-87
2022/01/30 10:08:43;;;;;;;;;;;6.70;99.90;;;;;;4929808;29;19951;-87
2022/01/30 10:11:31;;;;;;;;;;;6.80;99.90;;;;;;4928322;29;20041;-86
2022/01/30 10:14:02;;;;;;;;;;;7.20;99.90;;;;;;4932683;29;19949;-87
2022/01/30 10:16:28;;;;;;;;;;;7.80;99.90;;;;;;4931092;29;19941;-87
2022/01/30 10:18:53;;;;;;;;;;;8.40;99.90;;;;;;4929760;29;19986;-86
2022/01/30 10:21:20;;;;;;;;;;;8.80;99.90;;;;;;4930563;29;19962;-87
2022/01/30 10:23:45;;;;;;;;;;;9.10;99.30;;;;;;4928163;29;19971;-88
2022/01/30 10:26:12;;;;;;;;;;;9.20;97.90;;;;;;4927264;29;19965;-89
2022/01/30 10:28:38;;;;;;;;;;;9.30;97.70;;;;;;4928604;29;20716;-89
2022/01/30 10:31:05;;;;;;;;;;;9.20;95.90;;;;;;4927836;29;19964;-88
2022/01/30 10:33:36;;;;;;;;;;;8.80;96.20;;;;;;4927517;29;19999;-89
2022/01/30 10:36:03;;;;;;;;;;;8.40;98.00;;;;;;4930444;29;19964;-87
2022/01/30 10:38:32;;;;;;;;;;;8.00;98.30;;;;;;4924003;29;19947;-91
2022/01/30 10:43:50;;;;;;;;;;;8.30;98.30;;;;;;4933602;29;19969;-86
2022/01/30 10:46:26;;;;;;;;;;;8.60;95.20;;;;;;4926936;29;19958;-90
2022/01/30 10:48:53;;;;;;;;;;;8.30;99.10;;;;;;4932030;29;19953;-89
2022/01/30 10:51:18;;;;;;;;;;;8.30;98.70;;;;;;4931547;29;20082;-87
2022/01/30 10:53:46;;;;;;;;;;;8.90;96.20;;;;;;4923306;29;20320;-85
2022/01/30 10:56:18;;;;;;;;;;;9.60;95.90;;;;;;4926183;29;20049;-84
2022/01/30 10:59:02;;;;;;;;;;;10.30;94.40;;;;;;4924874;29;19954;-89
2022/01/30 11:01:28;;;;;;;;;;;10.90;86.00;;;;;;4923661;29;19952;-88
2022/01/30 11:03:55;;;;;;;;;;;11.40;90.40;;;;;;4924730;29;20020;-86
2022/01/30 11:06:20;;;;;;;;;;;11.70;77.20;;;;;;4924479;29;20138;-87
2022/01/30 11:08:48;;;;;;;;;;;12.10;75.40;;;;;;4923794;29;20097;-85
2022/01/30 11:11:33;;;;;;;;;;;12.30;78.20;;;;;;4926687;29;19949;-87
2022/01/30 11:14:03;;;;;;;;;;;12.50;71.60;;;;;;4923525;29;20461;-86
2022/01/30 11:19:13;;;;;;;;;;;12.70;73.40;;;;;;4924494;29;21032;-84
2022/01/30 11:21:40;;;;;;;;;;;12.90;68.20;;;;;;4922207;29;19999;-87
2022/01/30 11:24:07;;;;;;;;;;;13.00;66.40;;;;;;4923849;29;20030;-85
2022/01/30 11:26:33;;;;;;;;;;;13.00;66.50;;;;;;4925681;29;20089;-84
2022/01/30 11:28:59;;;;;;;;;;;12.70;67.60;;;;;;4924246;29;20007;-83
2022/01/30 11:31:25;;;;;;;;;;;12.30;70.50;;;;;;4925800;29;19989;-89
2022/01/30 11:33:52;;;;;;;;;;;12.40;74.60;;;;;;4928169;29;19959;-88
2022/01/30 11:36:19;;;;;;;;;;;12.50;72.80;;;;;;4922687;29;19950;-88
2022/01/30 11:38:44;;;;;;;;;;;12.90;72.00;;;;;;4922867;29;19959;-88
2022/01/30 11:41:17;;;;;;;;;;;13.00;71.30;;;;;;4923328;29;20310;-89
2022/01/30 11:44:02;;;;;;;;;;;13.10;68.10;;;;;;4923717;29;19970;-92
2022/01/30 11:46:27;;;;;;;;;;;12.90;67.80;;;;;;4924874;29;19944;-89
2022/01/30 11:49:12;;;;;;;;;;;12.90;69.70;;;;;;4922906;29;20044;-91
2022/01/30 11:51:50;;;;;;;;;;;12.80;67.60;;;;;;4917300;29;19957;-86
2022/01/30 11:54:34;;;;;;;;;;;12.70;64.50;;;;;;4924189;29;20026;-89
2022/01/30 11:57:00;;;;;;;;;;;12.30;69.30;;;;;;4923305;29;19961;-89
2022/01/30 11:59:37;;;;;;;;;;;11.80;66.60;;;;;;4925573;29;20024;-90
2022/01/30 12:02:20;;;;;;;;;;;11.20;67.90;;;;;;4926388;29;19963;-87
2022/01/30 12:04:51;;;;;;;;;;;10.40;72.00;;;;;;4932221;29;20001;-87
2022/01/30 12:07:35;;;;;;;;;;;10.20;74.30;;;;;;4931715;29;19951;-88
2022/01/30 12:10:16;;;;;;;;;;;10.50;73.40;;;;;;4926023;29;19949;-86
2022/01/30 12:12:49;;;;;;;;;;;10.30;81.70;;;;;;4932351;29;20282;-88
2022/01/30 12:15:33;;;;;;;;;;;9.90;80.50;;;;;;4924474;29;19961;-87
2022/01/30 12:18:00;;;;;;;;;;;9.50;87.80;;;;;;4924696;29;19969;-87
2022/01/30 12:20:26;;;;;;;;;;;9.00;91.50;;;;;;4925383;29;19952;-86
2022/01/30 12:22:52;;;;;;;;;;;8.60;93.00;;;;;;4919111;29;19970;-85
2022/01/30 12:25:23;;;;;;;;;;;8.20;94.00;;;;;;4939859;29;19962;-91
2022/01/30 12:27:56;;;;;;;;;;;7.90;94.20;;;;;;4939707;29;19955;-93
2022/01/30 12:30:42;;;;;;;;;;;7.70;96.20;;;;;;4939871;29;20064;-89
2022/01/30 12:33:26;;;;;;;;;;;7.70;96.80;;;;;;4933446;29;19948;-91
2022/01/30 12:35:52;;;;;;;;;;;7.90;96.80;;;;;;4942287;29;20026;-96
2022/01/30 12:38:17;;;;;;;;;;;8.00;96.10;;;;;;4933071;29;20049;-87
2022/01/30 12:40:45;;;;;;;;;;;7.90;96.50;;;;;;4934605;29;19952;-90
2022/01/30 12:43:10;;;;;;;;;;;7.90;96.70;;;;;;4925864;29;19994;-90
2022/01/30 12:45:36;;;;;;;;;;;7.80;97.40;;;;;;4933498;29;19955;-92
2022/01/30 12:48:07;;;;;;;;;;;7.80;97.50;;;;;;4936643;29;19966;-89
2022/01/30 12:50:34;;;;;;;;;;;7.80;99.20;;;;;;4931997;29;19958;-92
2022/01/30 12:53:01;;;;;;;;;;;7.80;98.00;;;;;;4933451;29;20370;-92
2022/01/30 12:55:27;;;;;;;;;;;7.80;96.60;;;;;;4936262;29;20422;-89
2022/01/30 12:57:54;;;;;;;;;;;7.70;95.70;;;;;;4935099;29;20051;-88
2022/01/30 13:00:20;;;;;;;;;;;7.60;96.40;;;;;;4925415;29;20280;-89
2022/01/30 13:02:53;;;;;;;;;;;7.40;99.90;;;;;;4936991;29;19968;-94
2022/01/30 13:05:18;;;;;;;;;;;7.30;99.30;;;;;;4926878;29;20319;-83
2022/01/30 13:07:50;;;;;;;;;;;7.20;98.40;;;;;;4915157;29;19950;-91
2022/01/30 13:10:16;;;;;;;;;;;7.20;98.00;;;;;;4925800;29;20323;-83
2022/01/30 13:12:43;;;;;;;;;;;7.10;97.10;;;;;;4925717;29;19950;-88
2022/01/30 13:15:12;;;;;;;;;;;7.10;97.80;;;;;;4921678;29;19944;-81
2022/01/30 13:17:38;;;;;;;;;;;7.10;97.10;;;;;;4923197;29;19948;-86
2022/01/30 13:20:05;;;;;;;;;;;7.10;98.50;;;;;;4917729;29;20339;-85
2022/01/30 13:22:34;;;;;;;;;;;7.00;97.90;;;;;;4920728;29;19965;-82
2022/01/30 13:25:01;;;;;;;;;;;7.00;97.70;;;;;;4918921;29;20002;-83
2022/01/30 13:27:26;;;;;;;;;;;6.90;95.40;;;;;;4922885;29;19947;-86
2022/01/30 13:29:55;;;;;;;;;;;6.80;96.20;;;;;;4917173;29;20044;-86
2022/01/30 13:32:22;;;;;;;;;;;6.70;96.90;;;;;;4917647;29;20127;-89
2022/01/30 13:34:48;;;;;;;;;;;6.60;97.40;;;;;;4942758;29;19961;-84
2022/01/30 13:37:15;;;;;;;;;;;7.50;99.30;;;;;;4923711;29;19948;-86
2022/01/30 13:39:43;;;;;;;;;;;6.70;98.00;;;;;;4914347;29;20014;-86
2022/01/30 13:42:32;;;;;;;;;;;6.70;99.30;;;;;;4919996;29;20401;-82
2022/01/30 13:47:42;;;;;;;;;;;6.90;97.00;;;;;;4918987;29;19953;-84
2022/01/30 13:50:17;;;;;;;;;;;6.80;97.10;;;;;;4915608;29;19991;-87
2022/01/30 13:52:43;;;;;;;;;;;6.70;96.80;;;;;;4916976;29;19950;-87
2022/01/30 13:55:09;;;;;;;;;;;6.60;98.60;;;;;;4930537;29;20309;-89
2022/01/30 13:57:36;;;;;;;;;;;6.60;99.30;;;;;;4922224;29;19948;-86
2022/01/30 14:00:06;;;;;;;;;;;6.50;99.60;;;;;;4933510;29;19956;-88
2022/01/30 14:02:31;;;;;;;;;;;6.40;99.60;;;;;;4948974;28;20007;-87
2022/01/30 14:05:17;;;;;;;;;;;6.30;99.90;;;;;;4932263;29;19953;-88
2022/01/30 14:07:44;;;;;;;;;;;6.30;99.90;;;;;;4919678;29;20049;-92
2022/01/30 14:10:10;;;;;;;;;;;6.30;99.90;;;;;;4920244;29;19995;-86
2022/01/30 14:12:39;;;;;;;;;;;6.20;99.90;;;;;;4926879;29;19988;-90
2022/01/30 14:15:18;;;;;;;;;;;6.20;99.90;;;;;;4921640;29;20047;-86
2022/01/30 14:17:44;;;;;;;;;;;6.20;99.90;;;;;;4932896;29;20190;-86
2022/01/30 14:20:34;;;;;;;;;;;6.20;99.90;;;;;;4928669;29;20046;-86
2022/01/30 14:23:06;;;;;;;;;;;7.00;99.90;;;;;;4930513;29;20060;-87
2022/01/30 14:25:32;;;;;;;;;;;6.20;99.90;;;;;;4933026;29;19985;-87
2022/01/30 14:27:57;;;;;;;;;;;6.20;99.90;;;;;;4929647;29;19958;-87
2022/01/30 14:30:34;;;;;;;;;;;6.40;99.90;;;;;;4926038;29;20040;-88
2022/01/30 14:33:00;;;;;;;;;;;6.20;99.90;;;;;;4933658;29;20262;-84
2022/01/30 14:35:25;;;;;;;;;;;6.10;99.90;;;;;;4932568;29;19960;-88
2022/01/30 14:37:58;;;;;;;;;;;6.20;99.90;;;;;;4940701;29;19962;-91
2022/01/30 14:40:24;;;;;;;;;;;6.20;99.90;;;;;;4932897;29;19952;-95
2022/01/30 14:42:49;;;;;;;;;;;7.60;99.90;;;;;;4941141;29;19957;-92
2022/01/30 14:45:15;;;;;;;;;;;6.10;99.90;;;;;;4926995;29;19956;-91
2022/01/30 14:47:41;;;;;;;;;;;6.20;99.90;;;;;;4927442;29;19957;-96
2022/01/30 14:50:06;;;;;;;;;;;6.20;99.90;;;;;;4935420;29;20060;-92
2022/01/30 14:52:32;;;;;;;;;;;6.20;99.90;;;;;;4940060;29;19961;-93
2022/01/30 14:54:58;;;;;;;;;;;7.70;99.90;;;;;;4935908;29;20029;-91
2022/01/30 14:57:24;;;;;;;;;;;7.40;99.90;;;;;;4935567;29;19952;-91
2022/01/30 14:59:50;;;;;;;;;;;6.20;99.90;;;;;;4926057;29;19963;-88
2022/01/30 15:02:16;;;;;;;;;;;6.30;99.90;;;;;;4919387;29;20439;-89
2022/01/30 15:04:41;;;;;;;;;;;6.00;99.90;;;;;;4934330;29;19945;-90
2022/01/30 15:07:07;;;;;;;;;;;6.20;99.90;;;;;;4925706;29;19952;-94
2022/01/30 15:09:33;;;;;;;;;;;7.40;99.90;;;;;;4935915;29;19945;-92
2022/01/30 15:12:12;;;;;;;;;;;7.20;99.90;;;;;;4943422;28;20022;-92
2022/01/30 15:14:39;;;;;;;;;;;6.20;99.90;;;;;;4932051;29;19959;-93
2022/01/30 15:17:06;;;;;;;;;;;6.20;99.90;;;;;;4936408;29;20041;-92
2022/01/30 15:19:31;;;;;;;;;;;6.20;99.90;;;;;;4932608;29;19968;-85
2022/01/30 15:21:57;;;;;;;;;;;6.20;99.90;;;;;;4935016;29;20040;-89
2022/01/30 15:24:24;;;;;;;;;;;6.20;99.90;;;;;;4924250;29;19945;-90
2022/01/30 15:26:49;;;;;;;;;;;6.20;99.90;;;;;;4932375;29;20561;-87
2022/01/30 15:29:15;;;;;;;;;;;6.10;99.90;;;;;;4936927;29;20040;-90